Terminal Aerodrome Forecast
Issued by NWS

Home | Current Version | Previous Version | Text Only | Print | Product List | Glossary Off
Versions: 1 2 3 4 5 6 7 8 9 10 11 12 13 14 15 16 17 18

000
FTUS43 KMPX 260800 AAA
TAFAXN
TAF AMD
KAXN 260819Z 2608/2706 28004KT 3SM BR FEW035
      TEMPO 2608/2610 1SM BR
     FM261000 27009KT P6SM SKC
     FM261900 27015G21KT P6SM FEW050
     FM270100 27009KT P6SM SKC=

USA.gov is the U.S. government's official web portal to all federal, state and local government web resources and services.